createdAt,value
2022-10-01T00:00:27.863Z,389.51
2022-10-01T00:01:23.773Z,388.60
2022-10-01T00:02:18.825Z,388.82
2022-10-01T00:03:14.078Z,383.46
2022-10-01T00:04:09.890Z,377.73
2022-10-01T00:05:05.079Z,373.86
2022-10-01T00:06:00.395Z,370.90
2022-10-01T00:06:56.753Z,366.75
2022-10-01T00:07:51.945Z,361.90
2022-10-01T00:08:47.710Z,357.56
2022-10-01T00:09:42.858Z,355.62
2022-10-01T00:10:38.261Z,351.81
2022-10-01T00:11:34.116Z,346.97
2022-10-01T00:12:29.092Z,345.88
2022-10-01T00:13:24.832Z,342.27
2022-10-01T00:14:20.013Z,340.49
2022-10-01T00:15:15.332Z,338.39
2022-10-01T00:16:11.050Z,334.59
2022-10-01T00:17:06.226Z,334.25
2022-10-01T00:18:01.407Z,333.23
2022-10-01T00:18:57.693Z,331.21
2022-10-01T00:19:52.901Z,330.21
2022-10-01T00:20:48.622Z,328.56
2022-10-01T00:21:43.804Z,328.89
2022-10-01T00:22:39.015Z,329.55
2022-10-01T00:23:34.873Z,327.25
2022-10-01T00:24:30.088Z,328.56
2022-10-01T00:25:25.832Z,330.55
2022-10-01T00:26:21.033Z,329.55
2022-10-01T00:27:16.370Z,327.58
2022-10-01T00:28:12.180Z,327.25
2022-10-01T00:29:07.433Z,319.60
2022-10-01T00:30:02.576Z,313.79
2022-10-01T00:30:59.091Z,308.77
2022-10-01T00:31:54.363Z,307.61
2022-10-01T00:32:50.093Z,306.75
2022-10-01T00:33:45.278Z,305.32
2022-10-01T00:34:40.498Z,305.89
2022-10-01T00:35:36.236Z,306.46
2022-10-01T00:36:31.575Z,307.33
2022-10-01T00:37:27.454Z,306.75
2022-10-01T00:38:22.508Z,306.46
2022-10-01T00:39:17.687Z,307.33
2022-10-01T00:40:13.437Z,307.04
2022-10-01T00:41:08.677Z,307.90
2022-10-01T00:42:03.958Z,307.61
2022-10-01T00:42:58.999Z,309.06
2022-10-01T00:43:55.658Z,307.61
2022-10-01T00:44:50.953Z,310.23
2022-10-01T00:45:46.245Z,312.00
2022-10-01T00:46:42.033Z,313.19
2022-10-01T00:47:37.230Z,314.39
2022-10-01T00:48:32.386Z,315.30
2022-10-01T00:49:28.812Z,316.21
2022-10-01T00:50:24.005Z,317.74
2022-10-01T00:51:19.737Z,318.36
2022-10-01T00:52:14.939Z,320.22
2022-10-01T00:53:10.166Z,322.42
2022-10-01T00:54:05.957Z,323.06
2022-10-01T00:55:01.158Z,326.27
2022-10-01T00:55:57.065Z,327.25
2022-10-01T00:56:52.111Z,328.89
2022-10-01T00:57:47.303Z,328.56
2022-10-01T00:58:43.079Z,327.90
2022-10-01T00:59:38.254Z,330.55
2022-10-01T01:00:33.480Z,336.65
2022-10-01T01:01:28.835Z,339.44
2022-10-01T01:02:23.981Z,344.06
2022-10-01T01:03:19.305Z,350.68
2022-10-01T01:04:14.501Z,360.70
2022-10-01T01:05:09.664Z,367.99
2022-10-01T01:06:05.421Z,372.16
2022-10-01T01:07:00.578Z,377.30
2022-10-01T01:07:55.921Z,383.46
2022-10-01T01:08:50.965Z,388.82
2022-10-01T01:09:46.030Z,385.01
2022-10-01T01:10:41.088Z,391.10
2022-10-01T01:11:36.464Z,395.28
2022-10-01T01:12:31.162Z,397.64
2022-10-01T01:13:26.233Z,390.65
2022-10-01T01:14:21.391Z,392.49
2022-10-01T01:15:16.624Z,394.81
2022-10-01T01:16:11.798Z,391.56
2022-10-01T01:17:06.817Z,386.57
2022-10-01T01:18:01.847Z,385.45
2022-10-01T01:18:57.071Z,385.01
2022-10-01T01:19:51.985Z,383.02
2022-10-01T01:20:47.179Z,381.05
2022-10-01T01:21:42.240Z,382.58
2022-10-01T01:22:37.285Z,383.90
2022-10-01T01:23:32.382Z,381.70
2022-10-01T01:24:27.327Z,375.57
2022-10-01T01:25:22.339Z,376.86
2022-10-01T01:26:17.373Z,376.00
2022-10-01T01:27:12.431Z,374.28
2022-10-01T01:28:07.540Z,373.43
2022-10-01T01:29:02.616Z,373.01
2022-10-01T01:29:57.673Z,371.32
2022-10-01T01:30:52.732Z,369.64
2022-10-01T01:31:47.929Z,370.90
2022-10-01T01:32:43.079Z,371.32
2022-10-01T01:33:38.257Z,372.58
2022-10-01T01:34:33.511Z,373.86
2022-10-01T01:35:28.658Z,372.58
2022-10-01T01:36:23.805Z,373.01
2022-10-01T01:37:19.008Z,371.74
2022-10-01T01:38:14.314Z,373.01
2022-10-01T01:39:10.324Z,371.74
2022-10-01T01:40:05.488Z,370.90
2022-10-01T01:41:00.565Z,370.06
2022-10-01T01:41:55.746Z,370.06
2022-10-01T01:42:50.901Z,369.64
2022-10-01T01:43:46.066Z,370.06
2022-10-01T01:44:41.295Z,369.23
2022-10-01T01:45:36.517Z,368.81
2022-10-01T01:46:31.825Z,367.16
2022-10-01T01:47:26.874Z,367.16
2022-10-01T01:48:22.030Z,367.58
2022-10-01T01:49:17.203Z,366.34
2022-10-01T01:50:12.395Z,365.12
2022-10-01T01:51:07.718Z,361.90
2022-10-01T01:52:02.746Z,361.50
2022-10-01T01:52:57.895Z,360.31
2022-10-01T01:53:53.100Z,359.52
2022-10-01T01:54:48.439Z,358.34
2022-10-01T01:55:43.592Z,358.73
2022-10-01T01:56:38.797Z,357.95
2022-10-01T01:57:33.974Z,359.13
2022-10-01T01:58:29.163Z,358.73
2022-10-01T01:59:24.381Z,358.34
2022-10-01T02:00:19.527Z,359.13
2022-10-01T02:01:14.803Z,357.95
2022-10-01T02:02:10.077Z,357.95
2022-10-01T02:03:05.307Z,356.78
2022-10-01T02:04:00.398Z,355.62
2022-10-01T02:04:55.582Z,356.40
2022-10-01T02:05:50.750Z,353.71
2022-10-01T02:06:45.776Z,348.82
2022-10-01T02:07:40.786Z,348.08
2022-10-01T02:08:35.824Z,348.82
2022-10-01T02:09:31.013Z,346.61
2022-10-01T02:10:26.335Z,346.97
2022-10-01T02:11:21.379Z,346.61
2022-10-01T02:12:16.463Z,346.24
2022-10-01T02:13:15.605Z,345.15
2022-10-01T02:14:10.651Z,348.08
2022-10-01T02:15:05.811Z,346.97
2022-10-01T02:16:01.026Z,348.82
2022-10-01T02:16:56.343Z,348.82
2022-10-01T02:17:51.501Z,352.57
2022-10-01T02:18:46.643Z,352.19
2022-10-01T02:19:41.819Z,353.33
2022-10-01T02:20:36.999Z,357.17
2022-10-01T02:21:32.421Z,357.95
2022-10-01T02:22:27.318Z,359.52
2022-10-01T02:23:22.767Z,365.12
2022-10-01T02:24:17.827Z,366.75
2022-10-01T02:25:12.980Z,370.90
2022-10-01T02:26:08.165Z,369.23
2022-10-01T02:27:03.464Z,372.16
2022-10-01T02:27:58.662Z,374.28
2022-10-01T02:28:53.844Z,379.75
2022-10-01T02:29:49.049Z,380.83
2022-10-01T02:30:44.285Z,382.14
2022-10-01T02:31:39.683Z,387.02
2022-10-01T02:32:34.686Z,389.05
2022-10-01T02:33:29.868Z,389.28
2022-10-01T02:34:25.043Z,391.10
2022-10-01T02:35:20.332Z,392.95
2022-10-01T02:36:15.511Z,394.58
2022-10-01T02:37:10.545Z,398.35
2022-10-01T02:38:05.762Z,397.64
2022-10-01T02:39:00.931Z,398.35
2022-10-01T02:39:56.244Z,400.26
2022-10-01T02:40:51.305Z,402.19
2022-10-01T02:41:46.491Z,400.26
2022-10-01T02:42:41.699Z,403.90
2022-10-01T02:43:41.973Z,405.62
2022-10-01T02:44:33.318Z,407.10
2022-10-01T02:45:27.438Z,407.85
2022-10-01T02:46:22.617Z,410.61
2022-10-01T02:47:17.827Z,411.12
2022-10-01T02:48:12.969Z,412.13
2022-10-01T02:49:08.136Z,415.99
2022-10-01T02:50:03.351Z,417.29
2022-10-01T02:50:58.521Z,417.82
2022-10-01T02:51:53.827Z,420.18
2022-10-01T02:52:48.863Z,421.25
2022-10-01T02:53:44.121Z,421.25
2022-10-01T02:54:39.407Z,424.73
2022-10-01T02:55:34.409Z,424.19
2022-10-01T02:56:29.825Z,422.31
2022-10-01T02:57:24.898Z,423.92
2022-10-01T02:58:20.026Z,423.39
2022-10-01T02:59:15.192Z,424.73
2022-10-01T03:00:10.363Z,423.65
2022-10-01T03:01:05.702Z,424.19
2022-10-01T03:02:00.882Z,424.19
2022-10-01T03:02:56.068Z,425.01
2022-10-01T03:03:51.204Z,426.91
2022-10-01T03:04:46.394Z,423.92
2022-10-01T03:05:41.554Z,427.18
2022-10-01T03:06:36.788Z,428.01
2022-10-01T03:07:31.977Z,424.46
2022-10-01T03:08:27.248Z,426.64
2022-10-01T03:09:22.472Z,426.36
2022-10-01T03:10:17.765Z,426.36
2022-10-01T03:11:12.839Z,422.58
2022-10-01T03:12:07.887Z,423.65
2022-10-01T03:13:02.957Z,422.58
2022-10-01T03:13:57.997Z,422.31
2022-10-01T03:14:53.196Z,422.58
2022-10-01T03:15:48.308Z,423.12
2022-10-01T03:16:43.252Z,419.66
2022-10-01T03:17:38.266Z,421.51
2022-10-01T03:18:33.337Z,421.51
2022-10-01T03:19:28.404Z,421.51
2022-10-01T03:20:23.454Z,421.51
2022-10-01T03:21:18.507Z,423.12
2022-10-01T03:22:13.541Z,423.65
2022-10-01T03:23:08.614Z,422.85
2022-10-01T03:24:03.671Z,423.65
2022-10-01T03:24:58.681Z,423.12
2022-10-01T03:25:53.743Z,422.58
2022-10-01T03:26:48.934Z,420.71
2022-10-01T03:27:44.178Z,421.78
2022-10-01T03:28:39.369Z,418.60
2022-10-01T03:29:34.547Z,417.03
2022-10-01T03:30:29.824Z,423.65
2022-10-01T03:31:25.094Z,421.25
2022-10-01T03:32:20.312Z,423.92
2022-10-01T03:33:15.502Z,423.65
2022-10-01T03:34:10.699Z,425.55
2022-10-01T03:35:06.010Z,425.28
2022-10-01T03:36:01.057Z,425.28
2022-10-01T03:36:57.626Z,424.19
2022-10-01T03:37:52.831Z,425.82
2022-10-01T03:38:48.688Z,422.85
2022-10-01T03:39:43.827Z,424.46
2022-10-01T03:40:39.135Z,425.82
2022-10-01T03:41:35.187Z,427.18
2022-10-01T03:42:30.078Z,426.64
2022-10-01T03:43:25.957Z,425.28
2022-10-01T03:44:21.244Z,426.64
2022-10-01T03:45:16.455Z,426.91
2022-10-01T03:46:12.266Z,425.01
2022-10-01T03:47:07.468Z,422.58
2022-10-01T03:48:02.612Z,426.36
2022-10-01T03:48:59.037Z,426.64
2022-10-01T03:49:54.219Z,425.82
2022-10-01T03:50:49.961Z,423.65
2022-10-01T03:51:45.313Z,423.12
2022-10-01T03:52:40.483Z,419.13
2022-10-01T03:53:36.240Z,420.98
2022-10-01T03:54:31.425Z,421.78
2022-10-01T03:55:27.394Z,419.39
2022-10-01T03:56:22.456Z,421.51
2022-10-01T03:57:17.707Z,420.71
2022-10-01T03:58:13.461Z,417.82
2022-10-01T03:59:08.637Z,414.95
2022-10-01T04:00:04.116Z,414.70
2022-10-01T04:01:00.146Z,413.67
2022-10-01T04:01:55.382Z,416.77
2022-10-01T04:02:51.255Z,415.21
2022-10-01T04:03:46.401Z,419.39
2022-10-01T04:04:41.859Z,421.51
2022-10-01T04:05:37.503Z,421.78
2022-10-01T04:06:32.685Z,424.73
2022-10-01T04:07:28.570Z,425.55
2022-10-01T04:08:24.464Z,426.64
2022-10-01T04:09:19.213Z,427.73
2022-10-01T04:10:14.861Z,427.18
2022-10-01T04:11:10.035Z,428.56
2022-10-01T04:12:05.248Z,434.14
2022-10-01T04:13:01.652Z,432.45
2022-10-01T04:13:56.868Z,429.66
2022-10-01T04:14:52.729Z,429.66
2022-10-01T04:15:47.985Z,429.66
2022-10-01T04:16:43.033Z,433.85
2022-10-01T04:17:41.588Z,432.73
2022-10-01T04:18:35.015Z,435.27
2022-10-01T04:19:29.972Z,437.84
2022-10-01T04:20:24.989Z,438.99
2022-10-01T04:21:20.345Z,441.61
2022-10-01T04:22:16.065Z,439.86
2022-10-01T04:23:11.261Z,437.84
2022-10-01T04:24:06.573Z,440.74
2022-10-01T04:25:02.762Z,438.71
2022-10-01T04:25:57.940Z,436.98
2022-10-01T04:26:53.686Z,435.84
2022-10-01T04:27:49.002Z,435.84
2022-10-01T04:28:44.157Z,434.70
2022-10-01T04:29:40.477Z,434.14
2022-10-01T04:30:35.155Z,432.73
2022-10-01T04:31:31.205Z,426.64
2022-10-01T04:32:26.055Z,422.85
2022-10-01T04:33:21.236Z,426.09
2022-10-01T04:34:17.278Z,426.36
2022-10-01T04:35:12.475Z,422.85
2022-10-01T04:36:07.802Z,424.19
2022-10-01T04:37:02.832Z,426.36
2022-10-01T04:37:58.156Z,428.01
2022-10-01T04:38:57.886Z,427.18
2022-10-01T04:39:50.020Z,427.73
2022-10-01T04:40:44.836Z,427.73
2022-10-01T04:41:39.982Z,428.28
2022-10-01T04:42:35.321Z,429.11
2022-10-01T04:43:30.929Z,429.66
2022-10-01T04:44:26.320Z,430.21
2022-10-01T04:45:21.511Z,428.83
2022-10-01T04:46:18.081Z,428.01
2022-10-01T04:47:13.215Z,428.01
2022-10-01T04:48:08.940Z,425.01
2022-10-01T04:49:04.221Z,428.83
2022-10-01T04:49:59.334Z,429.94
2022-10-01T04:50:55.021Z,430.21
2022-10-01T04:51:50.219Z,430.21
2022-10-01T04:52:45.397Z,432.17
2022-10-01T04:53:40.585Z,434.99
2022-10-01T04:54:35.832Z,434.70
2022-10-01T04:55:30.882Z,436.98
2022-10-01T04:56:25.940Z,436.70
2022-10-01T04:57:21.007Z,439.86
2022-10-01T04:58:15.998Z,442.49
2022-10-01T04:59:11.023Z,441.61
2022-10-01T05:00:06.045Z,443.37
2022-10-01T05:01:02.278Z,436.98
2022-10-01T05:01:56.239Z,441.03
2022-10-01T05:02:51.152Z,438.42
2022-10-01T05:03:46.384Z,439.57
2022-10-01T05:04:41.461Z,434.70
2022-10-01T05:05:36.645Z,432.17
2022-10-01T05:06:31.619Z,431.89
2022-10-01T05:07:26.858Z,433.01
2022-10-01T05:08:21.875Z,427.46
2022-10-01T05:09:16.960Z,428.28
2022-10-01T05:10:12.099Z,431.61
2022-10-01T05:11:07.203Z,433.57
2022-10-01T05:12:02.683Z,428.01
2022-10-01T05:12:57.890Z,431.33
2022-10-01T05:13:53.143Z,436.70
2022-10-01T05:14:48.242Z,429.94
2022-10-01T05:15:43.361Z,430.21
2022-10-01T05:16:38.511Z,433.01
2022-10-01T05:17:33.531Z,434.99
2022-10-01T05:18:28.655Z,436.41
2022-10-01T05:19:27.884Z,427.18
2022-10-01T05:20:18.783Z,425.28
2022-10-01T05:21:13.793Z,423.39
2022-10-01T05:22:08.795Z,425.55
2022-10-01T05:23:03.981Z,427.46
2022-10-01T05:23:59.142Z,431.61
2022-10-01T05:24:55.173Z,431.89
2022-10-01T05:25:50.503Z,431.61
2022-10-01T05:26:45.857Z,433.29
2022-10-01T05:27:41.185Z,427.73
2022-10-01T05:28:36.585Z,418.34
2022-10-01T05:29:31.753Z,419.39
2022-10-01T05:30:27.110Z,422.31
2022-10-01T05:31:22.494Z,428.01
2022-10-01T05:32:18.155Z,429.94
2022-10-01T05:33:13.386Z,433.01
2022-10-01T05:34:08.752Z,435.84
2022-10-01T05:35:04.123Z,438.42
2022-10-01T05:35:59.563Z,443.08
2022-10-01T05:36:54.757Z,440.45
2022-10-01T05:37:50.218Z,442.78
2022-10-01T05:38:45.426Z,443.96
2022-10-01T05:39:41.055Z,445.15
2022-10-01T05:40:36.131Z,445.45
2022-10-01T05:41:31.643Z,446.34
2022-10-01T05:42:26.716Z,449.65
2022-10-01T05:43:22.047Z,449.65
2022-10-01T05:44:17.516Z,448.14
2022-10-01T05:45:12.776Z,436.98
2022-10-01T05:46:08.160Z,437.84
2022-10-01T05:47:03.632Z,440.74
2022-10-01T05:47:58.885Z,440.45
2022-10-01T05:48:54.203Z,437.55
2022-10-01T05:49:49.556Z,433.85
2022-10-01T05:50:44.892Z,434.70
2022-10-01T05:51:40.218Z,436.12
2022-10-01T05:52:35.541Z,436.12
2022-10-01T05:53:30.927Z,434.99
2022-10-01T05:54:26.299Z,427.46
2022-10-01T05:55:21.614Z,428.56
2022-10-01T05:56:17.107Z,417.82
2022-10-01T05:57:12.333Z,405.62
2022-10-01T05:58:07.764Z,408.60
2022-10-01T05:59:03.157Z,411.88
2022-10-01T05:59:59.901Z,414.70
2022-10-01T06:00:55.263Z,415.99
2022-10-01T06:01:50.752Z,417.55
2022-10-01T06:02:46.222Z,420.18
2022-10-01T06:03:41.616Z,417.55
2022-10-01T06:04:41.072Z,419.13
2022-10-01T06:05:32.905Z,420.18
2022-10-01T06:06:28.330Z,420.18
2022-10-01T06:07:23.743Z,417.82
2022-10-01T06:08:19.136Z,416.77
2022-10-01T06:09:14.540Z,417.55
2022-10-01T06:10:09.943Z,418.60
2022-10-01T06:11:05.337Z,419.39
2022-10-01T06:12:00.759Z,420.45
2022-10-01T06:13:00.224Z,415.99
2022-10-01T06:13:55.627Z,416.51
2022-10-01T06:14:51.042Z,417.82
2022-10-01T06:15:46.559Z,419.66
2022-10-01T06:16:41.855Z,421.25
2022-10-01T06:17:37.196Z,422.05
2022-10-01T06:18:32.633Z,422.31
2022-10-01T06:19:28.019Z,425.82
2022-10-01T06:20:23.442Z,427.73
2022-10-01T06:21:18.828Z,434.70
2022-10-01T06:22:14.362Z,440.15
2022-10-01T06:23:09.675Z,439.86
2022-10-01T06:24:05.066Z,443.37
2022-10-01T06:25:00.590Z,444.26
2022-10-01T06:25:55.831Z,445.45
2022-10-01T06:26:50.913Z,441.61
2022-10-01T06:27:45.975Z,445.74
2022-10-01T06:28:41.143Z,446.34
2022-10-01T06:29:35.990Z,446.34
2022-10-01T06:30:31.107Z,446.04
2022-10-01T06:31:26.234Z,441.32
2022-10-01T06:32:21.236Z,438.42
2022-10-01T06:33:16.265Z,417.82
2022-10-01T06:34:11.261Z,415.99
2022-10-01T06:35:06.296Z,415.47
2022-10-01T06:36:02.874Z,419.13
2022-10-01T06:36:58.004Z,414.70
2022-10-01T06:37:53.045Z,417.29
2022-10-01T06:38:48.033Z,419.13
2022-10-01T06:39:44.106Z,407.10
2022-10-01T06:40:39.546Z,410.86
2022-10-01T06:41:35.290Z,414.18
2022-10-01T06:42:30.384Z,413.92
2022-10-01T06:43:26.582Z,413.92
2022-10-01T06:44:21.985Z,414.18
2022-10-01T06:45:17.557Z,414.18
2022-10-01T06:46:12.883Z,415.99
2022-10-01T06:47:08.240Z,412.39
2022-10-01T06:48:03.814Z,411.12
2022-10-01T06:48:59.050Z,414.70
2022-10-01T06:49:54.168Z,410.36
2022-10-01T06:50:49.172Z,409.60
2022-10-01T06:51:44.186Z,406.36
2022-10-01T06:52:39.181Z,408.10
2022-10-01T06:53:34.295Z,408.60
2022-10-01T06:54:29.399Z,413.41
2022-10-01T06:55:24.448Z,412.39
2022-10-01T06:56:19.547Z,411.88
2022-10-01T06:57:14.590Z,413.67
2022-10-01T06:58:09.574Z,413.67
2022-10-01T06:59:06.233Z,410.86
2022-10-01T07:00:01.342Z,406.11
2022-10-01T07:00:56.492Z,400.26
2022-10-01T07:01:56.056Z,393.18
2022-10-01T07:02:48.498Z,385.23
2022-10-01T07:03:42.913Z,382.80
2022-10-01T07:04:38.413Z,384.12
2022-10-01T07:05:34.044Z,383.24
2022-10-01T07:06:29.345Z,384.79
2022-10-01T07:07:29.374Z,385.45
2022-10-01T07:08:21.245Z,388.82
2022-10-01T07:09:15.739Z,392.72
2022-10-01T07:10:11.200Z,392.49
2022-10-01T07:11:06.639Z,398.35
2022-10-01T07:12:02.122Z,394.34
2022-10-01T07:12:57.600Z,397.16
2022-10-01T07:13:54.689Z,392.49
2022-10-01T07:14:48.499Z,393.18
2022-10-01T07:15:43.517Z,387.47
2022-10-01T07:16:38.645Z,390.19
2022-10-01T07:17:33.703Z,390.88
2022-10-01T07:18:28.775Z,393.18
2022-10-01T07:19:23.947Z,395.28
2022-10-01T07:20:19.106Z,399.30
2022-10-01T07:21:14.014Z,396.92
2022-10-01T07:22:09.130Z,397.16
2022-10-01T07:23:04.304Z,397.16
2022-10-01T07:23:59.354Z,395.28
2022-10-01T07:24:54.425Z,394.11
2022-10-01T07:25:49.564Z,394.11
2022-10-01T07:26:44.601Z,389.73
2022-10-01T07:27:39.664Z,387.24
2022-10-01T07:28:35.105Z,382.36
2022-10-01T07:29:30.588Z,374.71
2022-10-01T07:30:26.089Z,367.99
2022-10-01T07:31:21.696Z,368.40
2022-10-01T07:32:17.100Z,372.58
2022-10-01T07:33:12.544Z,376.43
2022-10-01T07:34:08.114Z,387.47
2022-10-01T07:35:03.252Z,381.48
2022-10-01T07:35:58.261Z,383.68
2022-10-01T07:36:53.281Z,393.41
2022-10-01T07:37:49.723Z,399.54
2022-10-01T07:38:44.761Z,402.68
2022-10-01T07:39:39.806Z,408.10
2022-10-01T07:40:34.837Z,408.85
2022-10-01T07:41:29.995Z,413.16
2022-10-01T07:42:24.996Z,412.90
2022-10-01T07:43:20.056Z,413.92
2022-10-01T07:44:15.136Z,411.37
2022-10-01T07:45:10.328Z,411.37
2022-10-01T07:46:05.481Z,408.60
2022-10-01T07:47:00.404Z,406.85
2022-10-01T07:47:56.641Z,403.41
2022-10-01T07:48:51.994Z,400.98
2022-10-01T07:49:47.730Z,390.65
2022-10-01T07:50:42.896Z,377.73
2022-10-01T07:51:38.317Z,380.61
2022-10-01T07:52:33.796Z,379.31
2022-10-01T07:53:29.278Z,384.79
2022-10-01T07:54:24.856Z,386.12
2022-10-01T07:55:20.343Z,388.14
2022-10-01T07:56:15.791Z,389.51
2022-10-01T07:57:11.285Z,388.37
2022-10-01T07:58:06.726Z,391.56
2022-10-01T07:59:02.364Z,391.79
2022-10-01T07:59:57.952Z,397.16
2022-10-01T08:00:53.289Z,383.68
2022-10-01T08:01:48.884Z,382.14
2022-10-01T08:02:44.364Z,382.58
2022-10-01T08:03:39.745Z,388.60
2022-10-01T08:04:35.259Z,386.35
2022-10-01T08:05:30.673Z,389.96
2022-10-01T08:06:26.168Z,395.04
2022-10-01T08:07:21.642Z,389.05
2022-10-01T08:08:17.114Z,393.88
2022-10-01T08:09:12.717Z,393.18
2022-10-01T08:10:09.047Z,392.26
2022-10-01T08:11:04.396Z,393.41
2022-10-01T08:11:59.929Z,394.34
2022-10-01T08:12:55.596Z,397.64
2022-10-01T08:13:53.227Z,394.34
2022-10-01T08:14:48.597Z,396.45
2022-10-01T08:15:43.885Z,399.54
2022-10-01T08:16:39.509Z,398.82
2022-10-01T08:17:34.919Z,395.51
2022-10-01T08:18:30.205Z,395.51
2022-10-01T08:19:25.673Z,396.45
2022-10-01T08:20:21.130Z,392.95
2022-10-01T08:21:16.582Z,390.65
2022-10-01T08:22:12.053Z,388.60
2022-10-01T08:23:07.698Z,391.33
2022-10-01T08:24:03.033Z,398.35
2022-10-01T08:24:58.520Z,402.68
2022-10-01T08:25:53.991Z,401.71
2022-10-01T08:26:49.392Z,403.65
2022-10-01T08:27:44.486Z,403.41
2022-10-01T08:28:39.533Z,401.71
2022-10-01T08:29:34.717Z,396.45
2022-10-01T08:30:29.819Z,398.58
2022-10-01T08:31:24.872Z,402.19
2022-10-01T08:32:19.896Z,403.65
2022-10-01T08:33:14.893Z,406.61
2022-10-01T08:34:10.085Z,409.60
2022-10-01T08:35:05.191Z,412.13
2022-10-01T08:36:00.239Z,412.90
2022-10-01T08:36:56.938Z,406.36
2022-10-01T08:37:51.963Z,411.62
2022-10-01T08:38:47.092Z,414.18
2022-10-01T08:39:42.166Z,413.67
2022-10-01T08:40:38.086Z,411.62
2022-10-01T08:41:33.325Z,417.82
2022-10-01T08:42:28.776Z,416.77
2022-10-01T08:43:24.167Z,420.18
2022-10-01T08:44:19.764Z,424.73
2022-10-01T08:45:15.136Z,431.05
2022-10-01T08:46:10.644Z,433.29
2022-10-01T08:47:05.934Z,434.70
2022-10-01T08:48:01.928Z,436.12
2022-10-01T08:48:57.581Z,441.03
2022-10-01T08:49:52.514Z,440.45
2022-10-01T08:50:47.785Z,444.55
2022-10-01T08:51:43.169Z,446.04
2022-10-01T08:52:38.586Z,438.71
2022-10-01T08:53:33.662Z,437.55
2022-10-01T08:54:28.811Z,438.71
2022-10-01T08:55:23.920Z,405.37
2022-10-01T08:56:18.970Z,392.02
2022-10-01T08:57:14.086Z,396.92
2022-10-01T08:58:09.202Z,408.60
2022-10-01T08:59:04.275Z,417.55
2022-10-01T09:00:01.689Z,420.98
2022-10-01T09:00:56.797Z,400.98
2022-10-01T09:01:51.745Z,412.90
2022-10-01T09:02:46.778Z,422.58
2022-10-01T09:03:41.830Z,433.01
2022-10-01T09:04:36.998Z,438.13
2022-10-01T09:05:32.015Z,439.86
2022-10-01T09:06:27.065Z,449.65
2022-10-01T09:07:22.094Z,456.42
2022-10-01T09:08:17.181Z,464.37
2022-10-01T09:09:12.184Z,471.59
2022-10-01T09:10:08.424Z,462.76
2022-10-01T09:11:03.856Z,468.61
2022-10-01T09:11:59.400Z,472.93
2022-10-01T09:12:54.662Z,471.93
2022-10-01T09:13:50.638Z,475.97
2022-10-01T09:14:45.771Z,469.93
2022-10-01T09:15:41.177Z,470.93
2022-10-01T09:16:36.586Z,469.27
2022-10-01T09:17:31.919Z,474.61
2022-10-01T09:18:27.322Z,476.99
2022-10-01T09:19:22.840Z,485.68
2022-10-01T09:20:18.154Z,487.45
2022-10-01T09:21:13.627Z,485.32
2022-10-01T09:22:09.011Z,485.68
2022-10-01T09:23:04.417Z,489.60
2022-10-01T09:23:59.675Z,486.74
2022-10-01T09:24:55.098Z,491.40
2022-10-01T09:25:50.454Z,492.13
2022-10-01T09:26:45.836Z,494.68
2022-10-01T09:27:41.210Z,490.32
2022-10-01T09:28:36.606Z,491.04
2022-10-01T09:29:32.007Z,491.04
2022-10-01T09:30:27.564Z,488.88
2022-10-01T09:31:22.884Z,489.60
2022-10-01T09:32:18.265Z,451.78
2022-10-01T09:33:13.513Z,446.94
2022-10-01T09:34:08.993Z,453.01
2022-10-01T09:35:04.769Z,456.42
2022-10-01T09:35:59.923Z,465.99
2022-10-01T09:36:55.234Z,472.26
2022-10-01T09:37:50.651Z,474.95
2022-10-01T09:38:50.186Z,468.94
2022-10-01T09:39:45.531Z,470.93
2022-10-01T09:40:44.615Z,469.93
2022-10-01T09:41:39.932Z,473.94
2022-10-01T09:42:35.277Z,479.39
2022-10-01T09:43:30.827Z,485.68
2022-10-01T09:44:26.191Z,486.03
2022-10-01T09:45:25.326Z,482.16
2022-10-01T09:46:20.856Z,447.84
2022-10-01T09:47:16.126Z,444.55
2022-10-01T09:48:11.525Z,325.30
2022-10-01T09:49:07.149Z,224.95
2022-10-01T09:50:02.615Z,208.64
2022-10-01T09:50:57.786Z,219.38
2022-10-01T09:51:53.272Z,243.83
2022-10-01T09:52:48.629Z,272.60
2022-10-01T09:53:43.889Z,298.38
2022-10-01T09:54:39.295Z,322.11
2022-10-01T09:55:34.815Z,343.34
2022-10-01T09:56:30.200Z,367.16
2022-10-01T09:57:25.461Z,382.14
2022-10-01T09:58:20.833Z,397.64
2022-10-01T09:59:15.917Z,408.10
2022-10-01T10:00:10.946Z,422.05
2022-10-01T10:01:05.917Z,438.71
2022-10-01T10:02:01.144Z,448.14
2022-10-01T10:02:56.412Z,444.55
2022-10-01T10:03:51.231Z,422.85
2022-10-01T10:04:46.324Z,423.92
2022-10-01T10:05:41.443Z,422.05
2022-10-01T10:06:37.015Z,434.70
2022-10-01T10:07:31.651Z,448.14
2022-10-01T10:08:26.771Z,456.73
2022-10-01T10:09:21.840Z,464.05
2022-10-01T10:10:16.920Z,465.02
2022-10-01T10:11:11.892Z,464.37
2022-10-01T10:12:06.978Z,466.32
2022-10-01T10:13:02.028Z,470.93
2022-10-01T10:13:56.996Z,473.94
2022-10-01T10:14:52.083Z,475.97
2022-10-01T10:15:47.204Z,477.33
2022-10-01T10:16:42.314Z,460.52
2022-10-01T10:17:37.291Z,469.27
2022-10-01T10:18:32.431Z,464.05
2022-10-01T10:19:27.360Z,470.93
2022-10-01T10:20:22.444Z,470.60
2022-10-01T10:21:17.561Z,476.65
2022-10-01T10:22:12.538Z,484.27
2022-10-01T10:23:07.805Z,492.86
2022-10-01T10:24:02.962Z,492.49
2022-10-01T10:24:57.949Z,499.13
2022-10-01T10:25:53.201Z,502.89
2022-10-01T10:26:48.157Z,473.60
2022-10-01T10:27:43.012Z,483.56
2022-10-01T10:28:40.331Z,491.40
2022-10-01T10:29:33.437Z,496.16
2022-10-01T10:30:28.682Z,492.13
2022-10-01T10:31:24.232Z,482.86
2022-10-01T10:32:19.554Z,489.24
2022-10-01T10:33:14.790Z,496.89
2022-10-01T10:34:10.194Z,502.51
2022-10-01T10:35:05.677Z,507.10
2022-10-01T10:36:00.974Z,512.55
2022-10-01T10:36:56.628Z,515.73
2022-10-01T10:37:51.720Z,516.53
2022-10-01T10:38:47.050Z,514.14
2022-10-01T10:39:42.413Z,523.83
2022-10-01T10:40:37.822Z,526.72
2022-10-01T10:41:33.692Z,533.47
2022-10-01T10:42:28.563Z,537.34
2022-10-01T10:43:23.978Z,541.70
2022-10-01T10:44:19.521Z,539.07
2022-10-01T10:45:14.738Z,537.34
2022-10-01T10:46:10.310Z,541.26
2022-10-01T10:47:05.624Z,542.58
2022-10-01T10:48:01.122Z,539.07
2022-10-01T10:48:56.552Z,542.14
2022-10-01T10:49:51.841Z,554.77
2022-10-01T10:50:47.144Z,557.09
2022-10-01T10:51:42.262Z,555.23
2022-10-01T10:52:37.327Z,548.83
2022-10-01T10:53:32.439Z,547.48
2022-10-01T10:54:31.165Z,548.38
2022-10-01T10:55:26.526Z,548.38
2022-10-01T10:56:21.779Z,553.39
2022-10-01T10:57:17.128Z,551.56
2022-10-01T10:58:12.516Z,552.47
2022-10-01T10:59:07.903Z,547.93
2022-10-01T11:00:04.020Z,529.23
2022-10-01T11:00:58.766Z,527.98
2022-10-01T11:01:54.225Z,524.65
2022-10-01T11:02:49.217Z,526.31
2022-10-01T11:03:44.658Z,530.07
2022-10-01T11:04:40.059Z,534.75
2022-10-01T11:05:35.287Z,531.34
2022-10-01T11:06:30.831Z,535.18
2022-10-01T11:07:26.058Z,540.82
2022-10-01T11:08:21.275Z,533.89
2022-10-01T11:09:16.890Z,537.77
2022-10-01T11:10:12.384Z,533.04
2022-10-01T11:11:07.476Z,531.34
2022-10-01T11:12:02.838Z,534.32
2022-10-01T11:12:58.034Z,544.35
2022-10-01T11:13:53.025Z,531.77
2022-10-01T11:14:48.097Z,516.12
2022-10-01T11:15:43.287Z,502.89
2022-10-01T11:16:38.249Z,504.03
2022-10-01T11:17:33.323Z,510.98
2022-10-01T11:18:28.391Z,520.96
2022-10-01T11:19:23.612Z,521.37
2022-10-01T11:20:20.879Z,512.16
2022-10-01T11:21:13.659Z,523.42
2022-10-01T11:22:08.712Z,523.83
2022-10-01T11:23:03.830Z,528.81
2022-10-01T11:23:58.723Z,530.50
2022-10-01T11:24:53.847Z,532.61
2022-10-01T11:25:49.282Z,534.75
2022-10-01T11:26:44.558Z,529.65
2022-10-01T11:27:39.964Z,529.23
2022-10-01T11:28:35.290Z,525.07
2022-10-01T11:29:30.900Z,515.33
2022-10-01T11:30:26.620Z,503.65